sensor_id;sensor_type;location;lat;lon;timestamp;P1;durP1;ratioP1;P2;durP2;ratioP2
66112;SDS011;52893;52.870;5.822;2022-12-29T00:00:19;1.90;;;1.70;;
66112;SDS011;52893;52.870;5.822;2022-12-29T00:02:46;2.30;;;2.10;;
66112;SDS011;52893;52.870;5.822;2022-12-29T00:05:13;1.83;;;1.70;;
66112;SDS011;52893;52.870;5.822;2022-12-29T00:07:42;1.55;;;1.10;;
66112;SDS011;52893;52.870;5.822;2022-12-29T00:10:09;1.85;;;1.65;;
66112;SDS011;52893;52.870;5.822;2022-12-29T00:12:37;2.78;;;1.45;;
66112;SDS011;52893;52.870;5.822;2022-12-29T00:15:23;2.20;;;1.50;;
66112;SDS011;52893;52.870;5.822;2022-12-29T00:18:03;2.65;;;2.10;;
66112;SDS011;52893;52.870;5.822;2022-12-29T00:20:32;2.38;;;1.52;;
66112;SDS011;52893;52.870;5.822;2022-12-29T00:23:19;2.33;;;1.92;;
66112;SDS011;52893;52.870;5.822;2022-12-29T00:26:08;1.65;;;1.50;;
66112;SDS011;52893;52.870;5.822;2022-12-29T00:28:57;1.33;;;1.15;;
66112;SDS011;52893;52.870;5.822;2022-12-29T00:31:41;1.30;;;1.20;;
66112;SDS011;52893;52.870;5.822;2022-12-29T00:34:26;1.52;;;1.10;;
66112;SDS011;52893;52.870;5.822;2022-12-29T00:37:11;1.98;;;1.50;;
66112;SDS011;52893;52.870;5.822;2022-12-29T00:39:40;1.30;;;1.20;;
66112;SDS011;52893;52.870;5.822;2022-12-29T00:42:25;2.90;;;1.70;;
66112;SDS011;52893;52.870;5.822;2022-12-29T00:45:25;3.55;;;1.13;;
66112;SDS011;52893;52.870;5.822;2022-12-29T00:47:53;3.13;;;1.95;;
66112;SDS011;52893;52.870;5.822;2022-12-29T00:50:20;1.73;;;1.50;;
66112;SDS011;52893;52.870;5.822;2022-12-29T00:52:46;1.75;;;1.40;;
66112;SDS011;52893;52.870;5.822;2022-12-29T00:55:15;1.30;;;1.20;;
66112;SDS011;52893;52.870;5.822;2022-12-29T00:57:42;5.53;;;1.40;;
66112;SDS011;52893;52.870;5.822;2022-12-29T01:00:10;1.65;;;1.50;;
66112;SDS011;52893;52.870;5.822;2022-12-29T01:02:38;2.33;;;1.55;;
66112;SDS011;52893;52.870;5.822;2022-12-29T01:05:05;1.33;;;1.15;;
66112;SDS011;52893;52.870;5.822;2022-12-29T01:07:33;4.18;;;1.50;;
66112;SDS011;52893;52.870;5.822;2022-12-29T01:10:01;1.92;;;1.30;;
66112;SDS011;52893;52.870;5.822;2022-12-29T01:12:38;3.70;;;1.73;;
66112;SDS011;52893;52.870;5.822;2022-12-29T01:15:10;2.33;;;1.23;;
66112;SDS011;52893;52.870;5.822;2022-12-29T01:17:39;2.10;;;1.40;;
66112;SDS011;52893;52.870;5.822;2022-12-29T01:20:06;1.17;;;1.08;;
66112;SDS011;52893;52.870;5.822;2022-12-29T01:22:34;4.28;;;1.67;;
66112;SDS011;52893;52.870;5.822;2022-12-29T01:25:02;1.02;;;0.88;;
66112;SDS011;52893;52.870;5.822;2022-12-29T01:27:30;1.75;;;1.63;;
66112;SDS011;52893;52.870;5.822;2022-12-29T01:29:58;2.42;;;1.40;;
66112;SDS011;52893;52.870;5.822;2022-12-29T01:32:26;7.40;;;1.30;;
66112;SDS011;52893;52.870;5.822;2022-12-29T01:34:53;2.17;;;1.25;;
66112;SDS011;52893;52.870;5.822;2022-12-29T01:37:20;0.77;;;0.63;;
66112;SDS011;52893;52.870;5.822;2022-12-29T01:39:47;1.15;;;0.75;;
66112;SDS011;52893;52.870;5.822;2022-12-29T01:42:16;1.25;;;1.10;;
66112;SDS011;52893;52.870;5.822;2022-12-29T01:44:49;4.80;;;0.77;;
66112;SDS011;52893;52.870;5.822;2022-12-29T01:47:20;5.80;;;1.27;;
66112;SDS011;52893;52.870;5.822;2022-12-29T01:49:56;3.38;;;1.23;;
66112;SDS011;52893;52.870;5.822;2022-12-29T01:52:26;0.70;;;0.70;;
66112;SDS011;52893;52.870;5.822;2022-12-29T01:54:56;2.80;;;1.60;;
66112;SDS011;52893;52.870;5.822;2022-12-29T01:57:25;1.15;;;0.95;;
66112;SDS011;52893;52.870;5.822;2022-12-29T01:59:58;1.23;;;1.10;;
66112;SDS011;52893;52.870;5.822;2022-12-29T02:02:40;0.80;;;0.80;;
66112;SDS011;52893;52.870;5.822;2022-12-29T02:05:13;0.93;;;0.80;;
66112;SDS011;52893;52.870;5.822;2022-12-29T02:07:45;0.50;;;0.50;;
66112;SDS011;52893;52.870;5.822;2022-12-29T02:10:14;0.70;;;0.70;;
66112;SDS011;52893;52.870;5.822;2022-12-29T02:12:42;0.68;;;0.68;;
66112;SDS011;52893;52.870;5.822;2022-12-29T02:15:09;1.25;;;1.10;;
66112;SDS011;52893;52.870;5.822;2022-12-29T02:17:41;4.15;;;0.90;;
66112;SDS011;52893;52.870;5.822;2022-12-29T02:20:21;1.15;;;0.80;;
66112;SDS011;52893;52.870;5.822;2022-12-29T02:23:25;1.98;;;0.95;;
66112;SDS011;52893;52.870;5.822;2022-12-29T02:26:07;0.98;;;0.80;;
66112;SDS011;52893;52.870;5.822;2022-12-29T02:32:10;0.85;;;0.60;;
66112;SDS011;52893;52.870;5.822;2022-12-29T02:34:47;0.65;;;0.50;;
66112;SDS011;52893;52.870;5.822;2022-12-29T02:37:22;1.23;;;0.75;;
66112;SDS011;52893;52.870;5.822;2022-12-29T02:39:55;4.18;;;0.85;;
66112;SDS011;52893;52.870;5.822;2022-12-29T02:42:31;1.20;;;0.82;;
66112;SDS011;52893;52.870;5.822;2022-12-29T02:45:03;2.72;;;0.80;;
66112;SDS011;52893;52.870;5.822;2022-12-29T02:47:39;1.45;;;0.90;;
66112;SDS011;52893;52.870;5.822;2022-12-29T02:50:10;1.65;;;1.10;;
66112;SDS011;52893;52.870;5.822;2022-12-29T02:52:43;2.35;;;1.08;;
66112;SDS011;52893;52.870;5.822;2022-12-29T02:55:15;1.02;;;0.70;;
66112;SDS011;52893;52.870;5.822;2022-12-29T02:57:41;3.78;;;0.70;;
66112;SDS011;52893;52.870;5.822;2022-12-29T03:00:09;0.93;;;0.90;;
66112;SDS011;52893;52.870;5.822;2022-12-29T03:02:44;2.47;;;0.80;;
66112;SDS011;52893;52.870;5.822;2022-12-29T03:05:22;2.90;;;0.70;;
66112;SDS011;52893;52.870;5.822;2022-12-29T03:08:04;1.33;;;0.70;;
66112;SDS011;52893;52.870;5.822;2022-12-29T03:10:41;1.45;;;0.80;;
66112;SDS011;52893;52.870;5.822;2022-12-29T03:13:18;2.17;;;1.08;;
66112;SDS011;52893;52.870;5.822;2022-12-29T03:16:10;1.70;;;0.90;;
66112;SDS011;52893;52.870;5.822;2022-12-29T03:18:47;1.42;;;0.77;;
66112;SDS011;52893;52.870;5.822;2022-12-29T03:21:24;1.02;;;0.55;;
66112;SDS011;52893;52.870;5.822;2022-12-29T03:24:14;2.28;;;0.90;;
66112;SDS011;52893;52.870;5.822;2022-12-29T03:26:44;2.15;;;1.02;;
66112;SDS011;52893;52.870;5.822;2022-12-29T03:29:13;1.75;;;0.80;;
66112;SDS011;52893;52.870;5.822;2022-12-29T03:31:44;6.30;;;1.27;;
66112;SDS011;52893;52.870;5.822;2022-12-29T03:34:16;2.40;;;0.90;;
66112;SDS011;52893;52.870;5.822;2022-12-29T03:36:47;3.25;;;0.98;;
66112;SDS011;52893;52.870;5.822;2022-12-29T03:39:18;5.03;;;1.00;;
66112;SDS011;52893;52.870;5.822;2022-12-29T03:41:48;2.80;;;0.80;;
66112;SDS011;52893;52.870;5.822;2022-12-29T03:44:22;0.55;;;0.50;;
66112;SDS011;52893;52.870;5.822;2022-12-29T03:46:59;3.65;;;0.55;;
66112;SDS011;52893;52.870;5.822;2022-12-29T03:49:28;1.80;;;0.70;;
66112;SDS011;52893;52.870;5.822;2022-12-29T03:51:56;1.38;;;0.88;;
66112;SDS011;52893;52.870;5.822;2022-12-29T03:54:24;2.22;;;0.60;;
66112;SDS011;52893;52.870;5.822;2022-12-29T03:56:52;4.10;;;0.80;;
66112;SDS011;52893;52.870;5.822;2022-12-29T03:59:30;0.82;;;0.55;;
66112;SDS011;52893;52.870;5.822;2022-12-29T04:01:57;6.10;;;1.08;;
66112;SDS011;52893;52.870;5.822;2022-12-29T04:04:25;3.15;;;0.77;;
66112;SDS011;52893;52.870;5.822;2022-12-29T04:06:53;5.45;;;0.80;;
66112;SDS011;52893;52.870;5.822;2022-12-29T04:09:21;3.85;;;0.60;;
66112;SDS011;52893;52.870;5.822;2022-12-29T04:11:49;3.40;;;0.65;;
66112;SDS011;52893;52.870;5.822;2022-12-29T04:14:18;3.28;;;0.50;;
66112;SDS011;52893;52.870;5.822;2022-12-29T04:16:45;5.28;;;1.00;;
66112;SDS011;52893;52.870;5.822;2022-12-29T04:19:12;6.72;;;0.70;;
66112;SDS011;52893;52.870;5.822;2022-12-29T04:21:41;1.77;;;0.65;;
66112;SDS011;52893;52.870;5.822;2022-12-29T04:24:10;4.80;;;0.80;;
66112;SDS011;52893;52.870;5.822;2022-12-29T04:26:40;4.28;;;0.60;;
66112;SDS011;52893;52.870;5.822;2022-12-29T04:29:28;4.20;;;1.02;;
66112;SDS011;52893;52.870;5.822;2022-12-29T04:32:14;2.75;;;0.98;;
66112;SDS011;52893;52.870;5.822;2022-12-29T04:34:47;3.83;;;0.57;;
66112;SDS011;52893;52.870;5.822;2022-12-29T04:37:14;4.28;;;0.90;;
66112;SDS011;52893;52.870;5.822;2022-12-29T04:39:43;2.95;;;1.02;;
66112;SDS011;52893;52.870;5.822;2022-12-29T04:42:11;4.25;;;1.15;;
66112;SDS011;52893;52.870;5.822;2022-12-29T04:44:39;6.97;;;1.23;;
66112;SDS011;52893;52.870;5.822;2022-12-29T04:47:12;7.38;;;1.40;;
66112;SDS011;52893;52.870;5.822;2022-12-29T04:49:49;4.53;;;1.25;;
66112;SDS011;52893;52.870;5.822;2022-12-29T04:52:35;8.35;;;1.33;;
66112;SDS011;52893;52.870;5.822;2022-12-29T04:55:05;2.92;;;1.00;;
66112;SDS011;52893;52.870;5.822;2022-12-29T04:57:33;4.45;;;0.90;;
66112;SDS011;52893;52.870;5.822;2022-12-29T05:00:01;6.55;;;1.30;;
66112;SDS011;52893;52.870;5.822;2022-12-29T05:02:28;2.47;;;0.90;;
66112;SDS011;52893;52.870;5.822;2022-12-29T05:04:56;3.85;;;0.95;;
66112;SDS011;52893;52.870;5.822;2022-12-29T05:07:24;8.18;;;1.50;;
66112;SDS011;52893;52.870;5.822;2022-12-29T05:09:53;4.22;;;0.85;;
66112;SDS011;52893;52.870;5.822;2022-12-29T05:12:22;3.88;;;1.10;;
66112;SDS011;52893;52.870;5.822;2022-12-29T05:14:58;4.03;;;0.80;;
66112;SDS011;52893;52.870;5.822;2022-12-29T05:17:25;7.53;;;1.00;;
66112;SDS011;52893;52.870;5.822;2022-12-29T05:19:53;10.40;;;1.17;;
66112;SDS011;52893;52.870;5.822;2022-12-29T05:22:21;3.17;;;0.90;;
66112;SDS011;52893;52.870;5.822;2022-12-29T05:24:49;11.70;;;1.20;;
66112;SDS011;52893;52.870;5.822;2022-12-29T05:27:17;6.72;;;1.75;;
66112;SDS011;52893;52.870;5.822;2022-12-29T05:30:11;10.88;;;1.73;;
66112;SDS011;52893;52.870;5.822;2022-12-29T05:32:40;4.78;;;1.17;;
66112;SDS011;52893;52.870;5.822;2022-12-29T05:35:08;8.38;;;1.35;;
66112;SDS011;52893;52.870;5.822;2022-12-29T05:37:35;7.65;;;2.03;;
66112;SDS011;52893;52.870;5.822;2022-12-29T05:40:03;8.82;;;1.20;;
66112;SDS011;52893;52.870;5.822;2022-12-29T05:42:31;8.57;;;1.33;;
66112;SDS011;52893;52.870;5.822;2022-12-29T05:45:33;9.30;;;1.65;;
66112;SDS011;52893;52.870;5.822;2022-12-29T05:48:23;7.90;;;1.20;;
66112;SDS011;52893;52.870;5.822;2022-12-29T05:51:14;2.15;;;0.70;;
66112;SDS011;52893;52.870;5.822;2022-12-29T05:53:47;11.40;;;1.02;;
66112;SDS011;52893;52.870;5.822;2022-12-29T05:56:15;7.03;;;1.42;;
66112;SDS011;52893;52.870;5.822;2022-12-29T05:58:44;9.55;;;1.58;;
66112;SDS011;52893;52.870;5.822;2022-12-29T06:01:13;7.57;;;1.42;;
66112;SDS011;52893;52.870;5.822;2022-12-29T06:03:41;9.45;;;1.65;;
66112;SDS011;52893;52.870;5.822;2022-12-29T06:06:08;7.53;;;1.45;;
66112;SDS011;52893;52.870;5.822;2022-12-29T06:08:38;5.90;;;1.30;;
66112;SDS011;52893;52.870;5.822;2022-12-29T06:11:05;5.88;;;1.13;;
66112;SDS011;52893;52.870;5.822;2022-12-29T06:13:33;8.60;;;1.52;;
66112;SDS011;52893;52.870;5.822;2022-12-29T06:16:00;5.10;;;1.27;;
66112;SDS011;52893;52.870;5.822;2022-12-29T06:18:29;6.55;;;1.42;;
66112;SDS011;52893;52.870;5.822;2022-12-29T06:20:59;3.47;;;0.95;;
66112;SDS011;52893;52.870;5.822;2022-12-29T06:23:26;11.10;;;1.42;;
66112;SDS011;52893;52.870;5.822;2022-12-29T06:25:54;6.47;;;1.52;;
66112;SDS011;52893;52.870;5.822;2022-12-29T06:28:21;6.40;;;1.45;;
66112;SDS011;52893;52.870;5.822;2022-12-29T06:30:48;7.65;;;1.38;;
66112;SDS011;52893;52.870;5.822;2022-12-29T06:33:17;4.60;;;1.38;;
66112;SDS011;52893;52.870;5.822;2022-12-29T06:35:46;6.75;;;1.33;;
66112;SDS011;52893;52.870;5.822;2022-12-29T06:38:15;5.63;;;1.27;;
66112;SDS011;52893;52.870;5.822;2022-12-29T06:40:42;8.10;;;1.58;;
66112;SDS011;52893;52.870;5.822;2022-12-29T06:43:30;8.32;;;1.35;;
66112;SDS011;52893;52.870;5.822;2022-12-29T06:46:28;10.13;;;1.60;;
66112;SDS011;52893;52.870;5.822;2022-12-29T06:48:56;8.40;;;1.45;;
66112;SDS011;52893;52.870;5.822;2022-12-29T06:51:24;8.10;;;1.63;;
66112;SDS011;52893;52.870;5.822;2022-12-29T06:53:51;6.72;;;1.45;;
66112;SDS011;52893;52.870;5.822;2022-12-29T06:56:19;11.63;;;1.73;;
66112;SDS011;52893;52.870;5.822;2022-12-29T06:58:46;7.18;;;1.15;;
66112;SDS011;52893;52.870;5.822;2022-12-29T07:01:13;11.50;;;1.42;;
66112;SDS011;52893;52.870;5.822;2022-12-29T07:03:41;7.88;;;1.00;;
66112;SDS011;52893;52.870;5.822;2022-12-29T07:06:08;10.05;;;1.35;;
66112;SDS011;52893;52.870;5.822;2022-12-29T07:08:37;12.05;;;1.58;;
66112;SDS011;52893;52.870;5.822;2022-12-29T07:11:05;7.05;;;1.50;;
66112;SDS011;52893;52.870;5.822;2022-12-29T07:13:32;8.02;;;1.67;;
66112;SDS011;52893;52.870;5.822;2022-12-29T07:15:59;6.93;;;1.15;;
66112;SDS011;52893;52.870;5.822;2022-12-29T07:18:32;8.02;;;1.58;;
66112;SDS011;52893;52.870;5.822;2022-12-29T07:20:59;8.00;;;1.80;;
66112;SDS011;52893;52.870;5.822;2022-12-29T07:23:27;8.40;;;1.33;;
66112;SDS011;52893;52.870;5.822;2022-12-29T07:26:00;10.77;;;1.77;;
66112;SDS011;52893;52.870;5.822;2022-12-29T07:28:27;10.25;;;1.73;;
66112;SDS011;52893;52.870;5.822;2022-12-29T07:30:55;13.52;;;2.25;;
66112;SDS011;52893;52.870;5.822;2022-12-29T07:33:22;7.07;;;1.40;;
66112;SDS011;52893;52.870;5.822;2022-12-29T07:35:50;12.45;;;1.83;;
66112;SDS011;52893;52.870;5.822;2022-12-29T07:38:18;8.70;;;1.67;;
66112;SDS011;52893;52.870;5.822;2022-12-29T07:40:45;12.05;;;2.03;;
66112;SDS011;52893;52.870;5.822;2022-12-29T07:43:13;9.90;;;1.75;;
66112;SDS011;52893;52.870;5.822;2022-12-29T07:45:52;9.27;;;1.92;;
66112;SDS011;52893;52.870;5.822;2022-12-29T07:48:22;7.63;;;1.20;;
66112;SDS011;52893;52.870;5.822;2022-12-29T07:50:49;4.78;;;1.00;;
66112;SDS011;52893;52.870;5.822;2022-12-29T07:53:17;8.45;;;1.52;;
66112;SDS011;52893;52.870;5.822;2022-12-29T07:55:44;7.85;;;1.33;;
66112;SDS011;52893;52.870;5.822;2022-12-29T07:58:13;9.52;;;1.48;;
66112;SDS011;52893;52.870;5.822;2022-12-29T08:00:40;7.10;;;1.42;;
66112;SDS011;52893;52.870;5.822;2022-12-29T08:03:07;13.15;;;2.00;;
66112;SDS011;52893;52.870;5.822;2022-12-29T08:05:35;7.00;;;1.67;;
66112;SDS011;52893;52.870;5.822;2022-12-29T08:08:02;7.88;;;1.25;;
66112;SDS011;52893;52.870;5.822;2022-12-29T08:10:29;10.07;;;2.35;;
66112;SDS011;52893;52.870;5.822;2022-12-29T08:12:57;8.90;;;1.80;;
66112;SDS011;52893;52.870;5.822;2022-12-29T08:15:26;14.10;;;2.17;;
66112;SDS011;52893;52.870;5.822;2022-12-29T08:17:53;12.50;;;2.08;;
66112;SDS011;52893;52.870;5.822;2022-12-29T08:20:20;7.47;;;1.60;;
66112;SDS011;52893;52.870;5.822;2022-12-29T08:22:47;7.05;;;1.85;;
66112;SDS011;52893;52.870;5.822;2022-12-29T08:25:14;11.52;;;2.63;;
66112;SDS011;52893;52.870;5.822;2022-12-29T08:27:42;16.48;;;1.98;;
66112;SDS011;52893;52.870;5.822;2022-12-29T08:30:09;8.73;;;1.90;;
66112;SDS011;52893;52.870;5.822;2022-12-29T08:32:39;26.17;;;3.10;;
66112;SDS011;52893;52.870;5.822;2022-12-29T08:35:06;17.75;;;2.95;;
66112;SDS011;52893;52.870;5.822;2022-12-29T08:37:34;18.35;;;3.50;;
66112;SDS011;52893;52.870;5.822;2022-12-29T08:40:01;19.95;;;2.88;;
66112;SDS011;52893;52.870;5.822;2022-12-29T08:42:29;10.68;;;2.33;;
66112;SDS011;52893;52.870;5.822;2022-12-29T08:44:57;16.20;;;2.80;;
66112;SDS011;52893;52.870;5.822;2022-12-29T08:47:25;14.30;;;2.78;;
66112;SDS011;52893;52.870;5.822;2022-12-29T08:49:54;12.10;;;1.25;;
66112;SDS011;52893;52.870;5.822;2022-12-29T08:52:22;17.58;;;2.47;;
66112;SDS011;52893;52.870;5.822;2022-12-29T08:54:49;8.98;;;1.85;;
66112;SDS011;52893;52.870;5.822;2022-12-29T08:57:17;9.98;;;1.85;;
66112;SDS011;52893;52.870;5.822;2022-12-29T09:00:10;17.30;;;2.47;;
66112;SDS011;52893;52.870;5.822;2022-12-29T09:02:38;10.57;;;1.63;;
66112;SDS011;52893;52.870;5.822;2022-12-29T09:05:07;10.23;;;1.92;;
66112;SDS011;52893;52.870;5.822;2022-12-29T09:07:35;11.95;;;1.92;;
66112;SDS011;52893;52.870;5.822;2022-12-29T09:10:02;8.10;;;1.98;;
66112;SDS011;52893;52.870;5.822;2022-12-29T09:12:31;10.35;;;1.90;;
66112;SDS011;52893;52.870;5.822;2022-12-29T09:14:58;12.75;;;1.83;;
66112;SDS011;52893;52.870;5.822;2022-12-29T09:17:25;11.57;;;2.38;;
66112;SDS011;52893;52.870;5.822;2022-12-29T09:20:10;11.05;;;2.13;;
66112;SDS011;52893;52.870;5.822;2022-12-29T09:22:38;11.98;;;1.48;;
66112;SDS011;52893;52.870;5.822;2022-12-29T09:25:05;8.68;;;1.17;;
66112;SDS011;52893;52.870;5.822;2022-12-29T09:27:34;9.27;;;1.75;;
66112;SDS011;52893;52.870;5.822;2022-12-29T09:30:02;8.32;;;1.52;;
66112;SDS011;52893;52.870;5.822;2022-12-29T09:32:31;8.73;;;1.50;;
66112;SDS011;52893;52.870;5.822;2022-12-29T09:34:58;12.88;;;2.28;;
66112;SDS011;52893;52.870;5.822;2022-12-29T09:37:27;11.40;;;2.10;;
66112;SDS011;52893;52.870;5.822;2022-12-29T09:39:54;8.63;;;2.03;;
66112;SDS011;52893;52.870;5.822;2022-12-29T09:42:23;10.57;;;1.65;;
66112;SDS011;52893;52.870;5.822;2022-12-29T09:44:56;8.90;;;1.85;;
66112;SDS011;52893;52.870;5.822;2022-12-29T09:47:30;7.60;;;1.70;;
66112;SDS011;52893;52.870;5.822;2022-12-29T09:49:58;11.25;;;2.10;;
66112;SDS011;52893;52.870;5.822;2022-12-29T09:52:32;13.85;;;2.17;;
66112;SDS011;52893;52.870;5.822;2022-12-29T09:55:03;12.52;;;2.00;;
66112;SDS011;52893;52.870;5.822;2022-12-29T10:00:06;14.13;;;2.50;;
66112;SDS011;52893;52.870;5.822;2022-12-29T10:02:41;15.70;;;1.67;;
66112;SDS011;52893;52.870;5.822;2022-12-29T10:05:17;7.45;;;1.83;;
66112;SDS011;52893;52.870;5.822;2022-12-29T10:07:54;16.50;;;2.42;;
66112;SDS011;52893;52.870;5.822;2022-12-29T10:10:31;11.50;;;1.77;;
66112;SDS011;52893;52.870;5.822;2022-12-29T10:13:07;6.78;;;1.75;;
66112;SDS011;52893;52.870;5.822;2022-12-29T10:15:47;7.72;;;1.63;;
66112;SDS011;52893;52.870;5.822;2022-12-29T10:18:27;16.10;;;2.60;;
66112;SDS011;52893;52.870;5.822;2022-12-29T10:21:08;16.58;;;1.92;;
66112;SDS011;52893;52.870;5.822;2022-12-29T10:23:48;19.38;;;2.50;;
66112;SDS011;52893;52.870;5.822;2022-12-29T10:26:19;10.65;;;2.00;;
66112;SDS011;52893;52.870;5.822;2022-12-29T10:28:49;6.30;;;1.63;;
66112;SDS011;52893;52.870;5.822;2022-12-29T10:31:20;9.35;;;1.65;;
66112;SDS011;52893;52.870;5.822;2022-12-29T10:33:51;9.85;;;2.13;;
66112;SDS011;52893;52.870;5.822;2022-12-29T10:38:58;10.65;;;1.92;;
66112;SDS011;52893;52.870;5.822;2022-12-29T10:41:32;3.75;;;0.88;;
66112;SDS011;52893;52.870;5.822;2022-12-29T10:44:07;5.78;;;1.10;;
66112;SDS011;52893;52.870;5.822;2022-12-29T10:46:38;4.50;;;1.55;;
66112;SDS011;52893;52.870;5.822;2022-12-29T10:49:06;10.98;;;2.25;;
66112;SDS011;52893;52.870;5.822;2022-12-29T10:51:41;11.48;;;1.33;;
66112;SDS011;52893;52.870;5.822;2022-12-29T10:54:13;18.20;;;2.13;;
66112;SDS011;52893;52.870;5.822;2022-12-29T10:56:46;13.07;;;2.22;;
66112;SDS011;52893;52.870;5.822;2022-12-29T10:59:19;31.17;;;1.97;;
66112;SDS011;52893;52.870;5.822;2022-12-29T11:01:50;11.32;;;2.08;;
66112;SDS011;52893;52.870;5.822;2022-12-29T11:04:28;10.60;;;2.00;;
66112;SDS011;52893;52.870;5.822;2022-12-29T11:07:14;8.82;;;1.80;;
66112;SDS011;52893;52.870;5.822;2022-12-29T11:09:45;15.07;;;2.67;;
66112;SDS011;52893;52.870;5.822;2022-12-29T11:12:23;25.58;;;3.03;;
66112;SDS011;52893;52.870;5.822;2022-12-29T11:15:02;9.73;;;1.67;;
66112;SDS011;52893;52.870;5.822;2022-12-29T11:17:45;12.38;;;2.30;;
66112;SDS011;52893;52.870;5.822;2022-12-29T11:20:33;15.55;;;1.83;;
66112;SDS011;52893;52.870;5.822;2022-12-29T11:23:03;18.23;;;3.38;;
66112;SDS011;52893;52.870;5.822;2022-12-29T11:25:33;16.05;;;1.83;;
66112;SDS011;52893;52.870;5.822;2022-12-29T11:28:01;14.35;;;2.28;;
66112;SDS011;52893;52.870;5.822;2022-12-29T11:30:40;13.35;;;2.30;;
66112;SDS011;52893;52.870;5.822;2022-12-29T11:33:08;13.30;;;2.33;;
66112;SDS011;52893;52.870;5.822;2022-12-29T11:35:37;20.42;;;2.72;;
66112;SDS011;52893;52.870;5.822;2022-12-29T11:38:12;4.07;;;1.33;;
66112;SDS011;52893;52.870;5.822;2022-12-29T11:40:47;21.02;;;3.10;;
66112;SDS011;52893;52.870;5.822;2022-12-29T11:43:18;6.97;;;1.75;;
66112;SDS011;52893;52.870;5.822;2022-12-29T11:45:51;14.07;;;2.00;;
66112;SDS011;52893;52.870;5.822;2022-12-29T11:48:19;10.55;;;2.38;;
66112;SDS011;52893;52.870;5.822;2022-12-29T11:50:48;14.32;;;1.95;;
66112;SDS011;52893;52.870;5.822;2022-12-29T11:53:19;12.43;;;1.85;;
66112;SDS011;52893;52.870;5.822;2022-12-29T11:55:59;22.77;;;3.10;;
66112;SDS011;52893;52.870;5.822;2022-12-29T11:58:29;10.18;;;1.27;;
66112;SDS011;52893;52.870;5.822;2022-12-29T12:00:58;13.55;;;2.35;;
66112;SDS011;52893;52.870;5.822;2022-12-29T12:03:29;8.32;;;1.52;;
66112;SDS011;52893;52.870;5.822;2022-12-29T12:06:01;10.43;;;2.28;;
66112;SDS011;52893;52.870;5.822;2022-12-29T12:08:31;13.60;;;1.50;;
66112;SDS011;52893;52.870;5.822;2022-12-29T12:11:06;10.18;;;2.05;;
66112;SDS011;52893;52.870;5.822;2022-12-29T12:13:39;9.80;;;1.40;;
66112;SDS011;52893;52.870;5.822;2022-12-29T12:16:15;14.10;;;1.75;;
66112;SDS011;52893;52.870;5.822;2022-12-29T12:18:50;13.77;;;2.17;;
66112;SDS011;52893;52.870;5.822;2022-12-29T12:21:21;11.20;;;1.23;;
66112;SDS011;52893;52.870;5.822;2022-12-29T12:24:09;15.00;;;2.05;;
66112;SDS011;52893;52.870;5.822;2022-12-29T12:26:49;6.33;;;1.17;;
66112;SDS011;52893;52.870;5.822;2022-12-29T12:29:26;14.45;;;1.58;;
66112;SDS011;52893;52.870;5.822;2022-12-29T12:32:04;1.92;;;0.95;;
66112;SDS011;52893;52.870;5.822;2022-12-29T12:34:41;6.63;;;1.30;;
66112;SDS011;52893;52.870;5.822;2022-12-29T12:37:23;10.57;;;1.05;;
66112;SDS011;52893;52.870;5.822;2022-12-29T12:40:23;11.77;;;1.50;;
66112;SDS011;52893;52.870;5.822;2022-12-29T12:43:09;7.03;;;1.13;;
66112;SDS011;52893;52.870;5.822;2022-12-29T12:45:50;7.90;;;0.95;;
66112;SDS011;52893;52.870;5.822;2022-12-29T12:48:35;4.65;;;0.82;;
66112;SDS011;52893;52.870;5.822;2022-12-29T12:51:17;4.22;;;0.95;;
66112;SDS011;52893;52.870;5.822;2022-12-29T12:53:54;5.40;;;1.10;;
66112;SDS011;52893;52.870;5.822;2022-12-29T12:56:44;5.15;;;1.20;;
66112;SDS011;52893;52.870;5.822;2022-12-29T12:59:24;12.93;;;1.30;;
66112;SDS011;52893;52.870;5.822;2022-12-29T13:02:13;7.30;;;1.08;;
66112;SDS011;52893;52.870;5.822;2022-12-29T13:05:00;5.72;;;1.13;;
66112;SDS011;52893;52.870;5.822;2022-12-29T13:07:50;7.00;;;1.00;;
66112;SDS011;52893;52.870;5.822;2022-12-29T13:10:28;7.15;;;1.40;;
66112;SDS011;52893;52.870;5.822;2022-12-29T13:13:12;4.75;;;0.80;;
66112;SDS011;52893;52.870;5.822;2022-12-29T13:15:57;8.07;;;1.35;;
66112;SDS011;52893;52.870;5.822;2022-12-29T13:18:33;10.70;;;0.90;;
66112;SDS011;52893;52.870;5.822;2022-12-29T13:21:10;8.25;;;0.90;;
66112;SDS011;52893;52.870;5.822;2022-12-29T13:23:54;6.88;;;1.33;;
66112;SDS011;52893;52.870;5.822;2022-12-29T13:26:28;6.35;;;1.20;;
66112;SDS011;52893;52.870;5.822;2022-12-29T13:29:04;9.90;;;1.27;;
66112;SDS011;52893;52.870;5.822;2022-12-29T13:31:42;5.22;;;1.02;;
66112;SDS011;52893;52.870;5.822;2022-12-29T13:34:19;5.70;;;1.15;;
66112;SDS011;52893;52.870;5.822;2022-12-29T13:36:54;11.55;;;1.60;;
66112;SDS011;52893;52.870;5.822;2022-12-29T13:39:26;9.85;;;1.42;;
66112;SDS011;52893;52.870;5.822;2022-12-29T13:41:58;6.00;;;1.10;;
66112;SDS011;52893;52.870;5.822;2022-12-29T13:44:28;16.33;;;1.42;;
66112;SDS011;52893;52.870;5.822;2022-12-29T13:47:02;7.90;;;1.35;;
66112;SDS011;52893;52.870;5.822;2022-12-29T13:49:37;11.23;;;1.50;;
66112;SDS011;52893;52.870;5.822;2022-12-29T13:52:09;11.05;;;1.40;;
66112;SDS011;52893;52.870;5.822;2022-12-29T13:54:44;8.27;;;0.88;;
66112;SDS011;52893;52.870;5.822;2022-12-29T13:57:26;3.05;;;1.02;;
66112;SDS011;52893;52.870;5.822;2022-12-29T14:00:01;11.13;;;1.98;;
66112;SDS011;52893;52.870;5.822;2022-12-29T14:02:42;9.70;;;0.93;;
66112;SDS011;52893;52.870;5.822;2022-12-29T14:05:27;5.45;;;1.15;;
66112;SDS011;52893;52.870;5.822;2022-12-29T14:07:59;5.88;;;0.80;;
66112;SDS011;52893;52.870;5.822;2022-12-29T14:10:29;6.38;;;1.35;;
66112;SDS011;52893;52.870;5.822;2022-12-29T14:13:04;8.60;;;1.80;;
66112;SDS011;52893;52.870;5.822;2022-12-29T14:15:33;15.82;;;1.48;;
66112;SDS011;52893;52.870;5.822;2022-12-29T14:18:12;6.47;;;1.02;;
66112;SDS011;52893;52.870;5.822;2022-12-29T14:20:46;5.80;;;1.50;;
66112;SDS011;52893;52.870;5.822;2022-12-29T14:23:28;8.80;;;1.33;;
66112;SDS011;52893;52.870;5.822;2022-12-29T14:26:12;7.50;;;1.10;;
66112;SDS011;52893;52.870;5.822;2022-12-29T14:28:43;6.57;;;0.98;;
66112;SDS011;52893;52.870;5.822;2022-12-29T14:31:33;1.38;;;0.75;;
66112;SDS011;52893;52.870;5.822;2022-12-29T14:37:17;3.17;;;0.63;;
66112;SDS011;52893;52.870;5.822;2022-12-29T14:39:52;12.50;;;1.08;;
66112;SDS011;52893;52.870;5.822;2022-12-29T14:42:30;3.45;;;1.13;;
66112;SDS011;52893;52.870;5.822;2022-12-29T14:44:59;5.45;;;1.40;;
66112;SDS011;52893;52.870;5.822;2022-12-29T14:47:31;4.38;;;1.38;;
66112;SDS011;52893;52.870;5.822;2022-12-29T14:50:04;6.43;;;1.30;;
66112;SDS011;52893;52.870;5.822;2022-12-29T14:52:33;9.00;;;0.98;;
66112;SDS011;52893;52.870;5.822;2022-12-29T14:55:30;12.55;;;0.98;;
66112;SDS011;52893;52.870;5.822;2022-12-29T14:58:05;9.30;;;1.52;;
66112;SDS011;52893;52.870;5.822;2022-12-29T15:00:37;9.95;;;1.13;;
66112;SDS011;52893;52.870;5.822;2022-12-29T15:03:06;4.72;;;0.65;;
66112;SDS011;52893;52.870;5.822;2022-12-29T15:08:11;5.57;;;1.10;;
66112;SDS011;52893;52.870;5.822;2022-12-29T15:10:40;2.70;;;0.70;;
66112;SDS011;52893;52.870;5.822;2022-12-29T15:13:16;9.82;;;0.80;;
66112;SDS011;52893;52.870;5.822;2022-12-29T15:15:47;9.60;;;1.25;;
66112;SDS011;52893;52.870;5.822;2022-12-29T15:18:21;8.15;;;0.75;;
66112;SDS011;52893;52.870;5.822;2022-12-29T15:20:53;19.73;;;1.33;;
66112;SDS011;52893;52.870;5.822;2022-12-29T15:23:22;5.57;;;0.73;;
66112;SDS011;52893;52.870;5.822;2022-12-29T15:25:51;17.65;;;1.50;;
66112;SDS011;52893;52.870;5.822;2022-12-29T15:28:21;9.73;;;1.13;;
66112;SDS011;52893;52.870;5.822;2022-12-29T15:30:50;3.47;;;0.70;;